Royer Lake, Indiana
Current Conditions -  °F | °C
As of 7:35 PM on Saturday 25 Oct 2014 (Local Time) from KIRS Reporting Station
Clear Clear  
Wind Chill: 16°   Ceiling: Unl
Heat Index: 16°   Visibility: 10mi
Dew Point:   Wind: 9mph
Humidity: 39%   Direction: 280°W
Pressure: 29.85"   Gusts: NA
Location:  41.6561°N, 85.3683°W
Report Text: KIRS 252335Z AUTO 28008KT 10SM CLR 16/02 A2985 RMK AO2
Loading
Personal Weather Stations






























Interactive Weather Map
Tropical Storm Tracking
New forecast layout! Learn more

10-Day Weather Forecast

Advertisements
Track Severe Weather on mobile